Time;durP1;ratioP1;P1;durP2;ratioP2;P2;SDS_P1;SDS_P2;PMS_P1;PMS_P2;Temp;Humidity;BMP_temperature;BMP_pressure;BME280_temperature;BME280_humidity;BME280_pressure;Samples;Min_cycle;Max_cycle;Signal;HPM_P1;HPM_P2
2023/08/06 00:01:14;;;;;;;9.77;6.20;;;18.70;99.90;;;;;;5007289;28;20664;-89
2023/08/06 00:03:42;;;;;;;9.77;6.63;;;18.80;99.90;;;;;;5008740;28;20194;-87
2023/08/06 00:06:10;;;;;;;12.45;5.53;;;18.70;99.90;;;;;;5008639;28;20269;-88
2023/08/06 00:08:37;;;;;;;9.05;6.70;;;18.80;99.90;;;;;;5007302;28;20240;-87
2023/08/06 00:11:05;;;;;;;8.02;6.40;;;18.80;99.90;;;;;;5008611;28;20553;-88
2023/08/06 00:13:32;;;;;;;11.30;6.50;;;18.80;99.90;;;;;;5007454;28;20202;-89
2023/08/06 00:16:13;;;;;;;8.57;6.72;;;18.80;99.90;;;;;;4991222;28;20275;-87
2023/08/06 00:18:40;;;;;;;6.97;5.68;;;18.80;99.90;;;;;;5007496;28;20874;-88
2023/08/06 00:21:08;;;;;;;9.48;6.30;;;18.80;99.90;;;;;;5008580;28;20191;-88
2023/08/06 00:23:35;;;;;;;9.38;6.60;;;18.80;99.90;;;;;;5008200;28;20233;-88
2023/08/06 00:26:03;;;;;;;10.48;7.10;;;18.80;99.90;;;;;;5007048;28;20194;-87
2023/08/06 00:28:31;;;;;;;10.77;7.03;;;18.70;99.90;;;;;;5008355;28;20657;-87
2023/08/06 00:30:58;;;;;;;10.30;7.07;;;18.70;99.90;;;;;;4991066;28;20237;-88
2023/08/06 00:33:26;;;;;;;11.00;8.20;;;18.80;99.90;;;;;;5007069;28;20194;-88
2023/08/06 00:35:53;;;;;;;8.82;6.28;;;18.80;99.90;;;;;;5006934;28;20210;-87
2023/08/06 00:38:21;;;;;;;10.30;7.35;;;18.70;99.90;;;;;;5008336;28;20187;-88
2023/08/06 00:40:48;;;;;;;8.70;6.90;;;18.80;99.90;;;;;;5008275;28;20190;-86
2023/08/06 00:43:16;;;;;;;11.40;6.95;;;18.70;99.90;;;;;;5007250;28;20606;-88
2023/08/06 00:45:44;;;;;;;9.95;7.93;;;18.80;99.90;;;;;;4990930;28;20190;-88
2023/08/06 00:48:12;;;;;;;9.15;7.57;;;18.80;99.90;;;;;;4990955;28;20191;-88
2023/08/06 00:50:40;;;;;;;10.55;7.72;;;18.80;99.90;;;;;;4990683;28;20206;-87
2023/08/06 00:53:08;;;;;;;10.13;8.00;;;18.80;99.90;;;;;;5007051;28;20199;-88
2023/08/06 00:55:36;;;;;;;10.63;8.73;;;18.80;99.90;;;;;;5006882;28;20778;-88
2023/08/06 00:58:04;;;;;;;10.05;7.32;;;18.80;99.90;;;;;;5006042;28;20193;-88
2023/08/06 01:00:31;;;;;;;11.55;7.30;;;18.80;99.90;;;;;;5006546;28;20270;-88
2023/08/06 01:02:59;;;;;;;10.30;7.15;;;18.90;99.90;;;;;;4990238;28;20199;-87
2023/08/06 01:05:27;;;;;;;9.80;7.68;;;18.90;99.90;;;;;;4990269;28;20186;-87
2023/08/06 01:08:14;;;;;;;9.93;7.90;;;18.90;99.90;;;;;;5006403;28;20244;-88
2023/08/06 01:11:20;;;;;;;12.35;8.43;;;18.90;99.90;;;;;;4990088;28;20565;-86
2023/08/06 01:13:51;;;;;;;12.55;9.73;;;18.90;99.90;;;;;;4990227;28;20186;-86
2023/08/06 01:16:20;;;;;;;14.32;9.02;;;18.80;99.90;;;;;;5006271;28;20249;-86
2023/08/06 01:18:49;;;;;;;12.45;10.07;;;18.80;99.90;;;;;;5007738;28;20194;-88
2023/08/06 01:21:18;;;;;;;13.18;9.32;;;18.80;99.90;;;;;;5007491;28;20179;-87
2023/08/06 01:23:47;;;;;;;12.07;9.43;;;18.80;99.90;;;;;;5007426;28;20226;-89
2023/08/06 01:26:24;;;;;;;13.85;10.25;;;18.80;99.90;;;;;;4990089;28;20194;-88
2023/08/06 01:29:19;;;;;;;10.95;8.68;;;18.80;99.90;;;;;;5090763;28;20198;-87
2023/08/06 01:31:56;;;;;;;10.55;8.05;;;18.90;99.90;;;;;;5005938;28;20186;-88
2023/08/06 01:34:31;;;;;;;14.48;8.80;;;18.90;99.90;;;;;;5007188;28;20207;-87
2023/08/06 01:37:00;;;;;;;14.75;10.02;;;18.90;99.90;;;;;;5005954;28;20195;-87
2023/08/06 01:39:28;;;;;;;9.77;8.10;;;18.90;99.90;;;;;;5005801;28;20290;-89
2023/08/06 01:41:55;;;;;;;10.30;8.45;;;18.90;99.90;;;;;;4989711;28;20199;-87
2023/08/06 01:44:23;;;;;;;12.30;9.13;;;19.00;99.90;;;;;;5007218;28;20675;-88
2023/08/06 01:46:52;;;;;;;13.50;10.00;;;19.00;99.90;;;;;;5011009;28;20204;-88
2023/08/06 01:49:19;;;;;;;11.90;9.25;;;18.90;99.90;;;;;;5022182;28;20206;-86
2023/08/06 01:51:47;;;;;;;11.68;8.82;;;18.90;99.90;;;;;;5005147;28;20194;-87
2023/08/06 01:54:15;;;;;;;15.75;11.27;;;18.90;99.90;;;;;;5006975;28;20179;-87
2023/08/06 01:56:43;;;;;;;11.85;9.63;;;18.80;99.90;;;;;;5073131;28;20222;-87
2023/08/06 01:59:11;;;;;;;11.85;9.68;;;18.80;99.90;;;;;;4989527;28;20183;-87
2023/08/06 02:01:38;;;;;;;14.18;10.95;;;18.80;99.90;;;;;;4989477;28;20190;-87
2023/08/06 02:04:08;;;;;;;11.18;8.25;;;18.70;99.90;;;;;;5091427;28;20198;-87
2023/08/06 02:06:35;;;;;;;13.27;10.73;;;18.80;99.90;;;;;;5005600;28;20281;-87
2023/08/06 02:09:03;;;;;;;12.70;8.98;;;18.70;99.90;;;;;;5091264;28;20277;-87
2023/08/06 02:11:30;;;;;;;13.15;8.60;;;18.70;99.90;;;;;;5005708;28;20277;-87
2023/08/06 02:13:58;;;;;;;13.35;9.05;;;18.70;99.90;;;;;;4991154;28;20728;-88
2023/08/06 02:16:26;;;;;;;13.27;10.48;;;18.80;99.90;;;;;;5017181;28;20210;-88
2023/08/06 02:18:53;;;;;;;13.27;10.32;;;18.70;99.90;;;;;;5093569;28;20569;-88
2023/08/06 02:21:21;;;;;;;15.45;9.55;;;18.70;99.90;;;;;;5005734;28;20195;-89
2023/08/06 02:23:48;;;;;;;12.50;8.07;;;18.60;99.90;;;;;;5006460;28;20226;-88
2023/08/06 02:26:16;;;;;;;16.58;10.25;;;18.60;99.90;;;;;;5005961;28;20568;-88
2023/08/06 02:28:44;;;;;;;15.70;9.35;;;18.60;99.90;;;;;;5005847;28;20195;-87
2023/08/06 02:31:14;;;;;;;13.32;10.45;;;18.60;99.90;;;;;;5006116;28;20195;-87
2023/08/06 02:33:42;;;;;;;9.07;6.80;;;18.60;99.90;;;;;;5005854;28;20264;-87
2023/08/06 02:36:10;;;;;;;14.82;9.93;;;18.70;99.90;;;;;;5006085;28;20216;-88
2023/08/06 02:38:37;;;;;;;12.80;9.13;;;18.60;99.90;;;;;;5007081;28;20265;-88
2023/08/06 02:41:05;;;;;;;12.75;9.65;;;18.60;99.90;;;;;;5005725;28;20191;-87
2023/08/06 02:43:33;;;;;;;8.60;7.47;;;18.60;99.90;;;;;;5021826;28;20183;-87
2023/08/06 02:46:01;;;;;;;11.90;9.23;;;18.60;99.90;;;;;;5005655;28;20191;-87
2023/08/06 02:48:29;;;;;;;10.45;8.75;;;18.70;99.90;;;;;;5005569;28;20191;-87
2023/08/06 02:51:00;;;;;;;11.57;9.07;;;18.70;99.90;;;;;;4989267;28;20217;-87
2023/08/06 02:53:29;;;;;;;12.43;8.80;;;18.80;99.90;;;;;;5006061;28;20222;-88
2023/08/06 02:55:59;;;;;;;12.70;8.80;;;18.80;99.90;;;;;;5005567;28;20733;-88
2023/08/06 02:58:36;;;;;;;10.82;7.70;;;18.70;99.90;;;;;;5005278;28;20244;-87
2023/08/06 03:01:12;;;;;;;9.63;7.93;;;18.80;99.90;;;;;;5005354;28;20197;-87
2023/08/06 03:03:49;;;;;;;9.60;7.63;;;18.90;99.90;;;;;;5005484;28;20202;-87
2023/08/06 03:06:26;;;;;;;9.35;7.20;;;18.90;99.90;;;;;;5005403;28;20193;-88
2023/08/06 03:08:56;;;;;;;9.38;7.47;;;19.00;99.90;;;;;;5005060;28;20194;-89
2023/08/06 03:11:24;;;;;;;10.23;7.88;;;19.00;99.90;;;;;;5005080;28;20277;-87
2023/08/06 03:13:56;;;;;;;9.10;8.10;;;19.00;99.90;;;;;;4989878;28;20179;-87
2023/08/06 03:16:24;;;;;;;10.25;8.10;;;18.90;99.90;;;;;;5005368;28;20210;-88
2023/08/06 03:18:51;;;;;;;12.77;9.30;;;18.90;99.90;;;;;;5005216;28;20178;-87
2023/08/06 03:21:20;;;;;;;11.27;8.88;;;18.80;99.90;;;;;;5008805;28;20199;-88
2023/08/06 03:23:48;;;;;;;9.02;7.32;;;18.80;99.90;;;;;;5008699;28;20230;-88
2023/08/06 03:26:19;;;;;;;10.35;8.25;;;18.90;99.90;;;;;;5095123;28;20699;-87
2023/08/06 03:28:47;;;;;;;8.93;7.80;;;18.80;99.90;;;;;;4992510;28;20196;-88
2023/08/06 03:31:17;;;;;;;9.20;7.20;;;18.90;99.90;;;;;;4992942;28;20195;-87
2023/08/06 03:33:45;;;;;;;10.18;7.78;;;18.90;99.90;;;;;;5009796;28;20190;-87
2023/08/06 03:36:15;;;;;;;10.32;8.77;;;18.90;99.90;;;;;;5007772;28;20207;-87
2023/08/06 03:38:43;;;;;;;8.88;6.82;;;18.90;99.90;;;;;;5008071;28;20193;-89
2023/08/06 03:41:13;;;;;;;12.15;7.95;;;18.90;99.90;;;;;;5009293;28;20187;-87
2023/08/06 03:43:41;;;;;;;10.05;8.27;;;18.90;99.90;;;;;;5008257;28;20217;-86
2023/08/06 03:46:14;;;;;;;8.82;7.63;;;18.90;99.90;;;;;;5008247;28;20544;-86
2023/08/06 03:48:42;;;;;;;9.68;7.93;;;18.90;99.90;;;;;;5008179;28;20187;-88
2023/08/06 03:51:09;;;;;;;10.55;6.63;;;18.90;99.90;;;;;;5008162;28;20198;-87
2023/08/06 03:53:38;;;;;;;11.57;7.07;;;19.00;99.90;;;;;;5007798;28;20600;-87
2023/08/06 03:56:06;;;;;;;8.60;6.30;;;19.10;99.90;;;;;;5007916;28;20214;-89
2023/08/06 03:58:34;;;;;;;10.55;8.20;;;19.10;99.90;;;;;;4991924;28;20630;-87
2023/08/06 04:01:02;;;;;;;8.48;7.55;;;19.20;99.90;;;;;;5008130;28;20270;-88
2023/08/06 04:03:48;;;;;;;10.32;8.02;;;19.20;99.90;;;;;;5010618;28;20185;-88
2023/08/06 04:06:16;;;;;;;10.43;7.32;;;19.20;99.90;;;;;;5008387;28;20226;-87
2023/08/06 04:08:43;;;;;;;10.80;7.10;;;19.20;99.90;;;;;;5024986;28;20183;-88
2023/08/06 04:11:13;;;;;;;12.45;7.05;;;19.20;99.90;;;;;;5008427;28;20187;-87
2023/08/06 04:13:44;;;;;;;10.73;8.05;;;19.20;99.90;;;;;;5025266;28;20184;-88
2023/08/06 04:16:14;;;;;;;8.93;7.35;;;19.20;99.90;;;;;;5011327;28;20229;-87
2023/08/06 04:18:42;;;;;;;9.10;7.60;;;19.20;99.90;;;;;;5028860;28;20261;-86
2023/08/06 04:21:09;;;;;;;11.65;8.95;;;19.20;99.90;;;;;;5011420;28;20190;-87
2023/08/06 04:23:37;;;;;;;10.70;7.70;;;19.20;99.90;;;;;;5027174;28;20229;-87
2023/08/06 04:26:06;;;;;;;10.40;7.78;;;19.20;99.90;;;;;;5027255;28;20404;-87
2023/08/06 04:28:35;;;;;;;12.13;8.23;;;19.20;99.90;;;;;;5027415;28;20277;-87
2023/08/06 04:31:03;;;;;;;12.90;8.27;;;19.20;99.90;;;;;;5027462;28;20202;-86
2023/08/06 04:33:33;;;;;;;13.45;6.95;;;19.30;99.90;;;;;;5027244;28;20206;-87
2023/08/06 04:36:06;;;;;;;12.15;7.40;;;19.30;99.90;;;;;;5028678;28;20187;-87
2023/08/06 04:38:34;;;;;;;11.35;9.27;;;19.30;99.90;;;;;;5027107;28;20190;-87
2023/08/06 04:41:05;;;;;;;10.68;7.60;;;19.40;99.90;;;;;;5011096;28;20214;-88
2023/08/06 04:43:32;;;;;;;11.13;8.30;;;19.40;99.90;;;;;;5027752;28;20175;-87
2023/08/06 04:46:00;;;;;;;10.43;8.45;;;19.40;99.90;;;;;;5011451;28;20198;-88
2023/08/06 04:48:27;;;;;;;12.00;8.00;;;19.50;99.90;;;;;;5027216;28;20181;-89
2023/08/06 04:50:55;;;;;;;10.10;8.00;;;19.50;99.90;;;;;;5027180;28;20182;-87
2023/08/06 04:53:22;;;;;;;10.85;8.00;;;19.50;99.90;;;;;;5028356;28;20182;-89
2023/08/06 04:55:50;;;;;;;10.60;7.18;;;19.60;99.90;;;;;;5010510;28;20209;-88
2023/08/06 04:58:17;;;;;;;10.43;7.40;;;19.60;99.90;;;;;;5028308;28;20557;-88
2023/08/06 05:00:45;;;;;;;12.32;8.63;;;19.60;99.90;;;;;;5028194;28;20213;-87
2023/08/06 05:03:12;;;;;;;10.82;8.80;;;19.70;99.90;;;;;;5026924;28;20818;-88
2023/08/06 05:05:42;;;;;;;14.15;8.50;;;19.70;99.90;;;;;;5027851;28;20209;-87
2023/08/06 05:08:18;;;;;;;10.43;8.85;;;19.70;99.90;;;;;;5027318;28;20238;-89
2023/08/06 05:10:46;;;;;;;10.77;8.15;;;19.70;99.90;;;;;;5026869;28;20247;-88
2023/08/06 05:13:13;;;;;;;10.18;8.20;;;19.70;99.90;;;;;;5026740;28;20609;-87
2023/08/06 05:15:42;;;;;;;14.20;9.65;;;19.80;99.90;;;;;;5010482;28;20705;-88
2023/08/06 05:18:11;;;;;;;12.30;9.40;;;19.80;99.90;;;;;;5026702;28;20698;-88
2023/08/06 05:20:40;;;;;;;14.13;9.05;;;19.80;99.90;;;;;;5027490;28;20865;-87
2023/08/06 05:23:08;;;;;;;12.60;9.88;;;19.90;99.90;;;;;;5027095;28;20217;-89
2023/08/06 05:25:35;;;;;;;12.15;9.13;;;19.90;99.90;;;;;;5027087;28;20197;-89
2023/08/06 05:28:03;;;;;;;12.80;10.15;;;19.90;99.90;;;;;;5027323;28;20185;-87
2023/08/06 05:30:31;;;;;;;16.13;9.23;;;19.90;99.90;;;;;;5027150;28;20193;-87
2023/08/06 05:32:59;;;;;;;14.77;9.32;;;20.00;99.90;;;;;;5027205;28;20186;-88
2023/08/06 05:35:26;;;;;;;15.98;10.32;;;20.10;99.90;;;;;;5027155;28;20178;-89
2023/08/06 05:37:54;;;;;;;16.58;9.93;;;20.10;99.90;;;;;;5022982;28;20205;-87
2023/08/06 05:40:21;;;;;;;13.15;10.65;;;20.10;99.90;;;;;;5022032;28;20217;-89
2023/08/06 05:42:52;;;;;;;11.30;9.43;;;20.10;99.90;;;;;;5026157;28;20232;-87
2023/08/06 05:45:20;;;;;;;12.45;9.32;;;20.10;99.90;;;;;;5024446;27;20248;-88
2023/08/06 05:47:49;;;;;;;13.60;9.45;;;20.20;99.90;;;;;;4992817;28;20276;-88
2023/08/06 05:50:20;;;;;;;11.35;9.90;;;20.20;99.90;;;;;;5014702;28;20270;-88
2023/08/06 05:52:48;;;;;;;15.77;11.77;;;20.20;99.90;;;;;;5021855;28;20243;-90
2023/08/06 05:55:19;;;;;;;14.00;10.70;;;20.40;99.90;;;;;;5022598;28;20203;-88
2023/08/06 05:57:47;;;;;;;13.18;10.55;;;20.50;99.90;;;;;;5012052;28;20546;-89
2023/08/06 06:00:15;;;;;;;17.65;11.50;;;20.50;99.90;;;;;;5020721;28;20218;-87
2023/08/06 06:02:46;;;;;;;16.15;11.40;;;20.60;99.90;;;;;;5021364;28;20748;-88
2023/08/06 06:05:13;;;;;;;15.55;11.43;;;20.60;99.90;;;;;;5025349;28;20218;-88
2023/08/06 06:07:41;;;;;;;14.73;11.05;;;20.60;99.90;;;;;;5018712;28;20212;-88
2023/08/06 06:10:10;;;;;;;14.70;11.02;;;20.70;99.90;;;;;;5100996;27;20214;-89
2023/08/06 06:12:39;;;;;;;13.60;10.60;;;20.70;99.90;;;;;;5101834;27;20190;-89
2023/08/06 06:15:07;;;;;;;14.63;11.75;;;20.70;99.90;;;;;;5032349;28;20200;-90
2023/08/06 06:17:34;;;;;;;13.15;10.40;;;20.80;99.90;;;;;;5042900;28;20204;-90
2023/08/06 06:20:04;;;;;;;13.50;11.60;;;20.80;99.90;;;;;;5031637;28;20709;-90
2023/08/06 06:22:31;;;;;;;15.40;11.70;;;20.90;99.90;;;;;;5028250;28;20217;-89
2023/08/06 06:24:59;;;;;;;14.55;11.90;;;21.00;99.90;;;;;;5025729;28;20191;-90
2023/08/06 06:27:26;;;;;;;13.68;11.40;;;21.00;99.90;;;;;;5029577;28;20197;-90
2023/08/06 06:29:54;;;;;;;17.10;12.20;;;21.10;99.90;;;;;;5036215;28;20181;-89
2023/08/06 06:32:22;;;;;;;16.13;12.32;;;21.20;99.90;;;;;;5090044;28;20220;-89
2023/08/06 06:34:50;;;;;;;16.38;13.38;;;21.20;99.90;;;;;;5108010;28;20207;-90
2023/08/06 06:37:17;;;;;;;14.57;11.65;;;21.30;99.90;;;;;;5032451;28;20205;-90
2023/08/06 06:39:44;;;;;;;14.93;12.00;;;21.40;99.90;;;;;;5029119;28;20243;-90
2023/08/06 06:42:12;;;;;;;18.30;12.82;;;21.50;99.90;;;;;;5113346;28;20196;-88
2023/08/06 06:44:44;;;;;;;14.73;12.60;;;21.60;99.90;;;;;;5009462;28;20187;-90
2023/08/06 06:47:11;;;;;;;18.40;13.77;;;21.60;99.90;;;;;;5027800;28;20204;-90
2023/08/06 06:49:40;;;;;;;15.20;12.85;;;21.70;99.90;;;;;;5030643;28;20193;-91
2023/08/06 06:52:08;;;;;;;14.98;12.52;;;21.70;99.90;;;;;;5014394;28;20664;-89
2023/08/06 06:54:36;;;;;;;14.73;12.80;;;21.70;99.90;;;;;;5018658;28;20660;-91
2023/08/06 06:57:04;;;;;;;13.75;12.18;;;21.90;99.90;;;;;;5034079;28;20687;-90
2023/08/06 06:59:31;;;;;;;15.48;13.38;;;22.00;99.90;;;;;;5013060;28;20187;-91
2023/08/06 07:01:59;;;;;;;20.67;14.50;;;22.00;99.90;;;;;;5035017;28;20186;-91
2023/08/06 07:04:27;;;;;;;19.13;13.70;;;22.10;99.90;;;;;;5032023;28;20197;-91
2023/08/06 07:06:55;;;;;;;15.80;13.05;;;22.20;99.90;;;;;;5013190;28;20216;-91
2023/08/06 07:09:22;;;;;;;18.08;14.63;;;22.30;99.90;;;;;;5114211;27;20214;-90
2023/08/06 07:11:50;;;;;;;18.48;13.65;;;22.40;99.90;;;;;;5042416;28;20662;-91
2023/08/06 07:14:18;;;;;;;17.33;13.52;;;22.40;99.90;;;;;;5043676;28;20190;-91
2023/08/06 07:16:46;;;;;;;16.88;13.73;;;22.50;99.90;;;;;;5020783;28;20238;-92
2023/08/06 07:19:14;;;;;;;15.68;13.85;;;22.50;99.90;;;;;;5044617;28;20182;-91
2023/08/06 07:21:43;;;;;;;18.63;13.85;;;22.60;99.90;;;;;;5033661;28;20194;-91
2023/08/06 07:24:11;;;;;;;16.60;13.00;;;22.70;99.90;;;;;;5022066;28;20210;-91
2023/08/06 07:26:38;;;;;;;17.40;13.63;;;22.70;99.90;;;;;;5092093;28;20285;-91
2023/08/06 07:29:06;;;;;;;17.05;13.98;;;22.80;99.90;;;;;;5030252;28;20241;-92
2023/08/06 07:31:40;;;;;;;15.00;13.40;;;22.90;99.90;;;;;;5027390;28;20600;-91
2023/08/06 07:34:10;;;;;;;15.45;13.57;;;22.90;99.90;;;;;;5021652;28;20185;-91
2023/08/06 07:36:38;;;;;;;16.00;13.93;;;23.10;99.90;;;;;;5026783;28;20202;-91
2023/08/06 07:39:06;;;;;;;16.48;14.05;;;23.20;99.90;;;;;;5029853;28;20636;-91
2023/08/06 07:41:35;;;;;;;18.35;14.05;;;23.20;99.90;;;;;;5033687;28;20188;-91
2023/08/06 07:44:02;;;;;;;16.73;13.68;;;23.30;99.90;;;;;;5016767;28;20196;-92
2023/08/06 07:46:30;;;;;;;18.25;13.48;;;23.40;99.90;;;;;;5033003;28;20662;-91
2023/08/06 07:48:58;;;;;;;17.92;14.18;;;23.40;99.90;;;;;;5093057;27;20194;-92
2023/08/06 07:51:26;;;;;;;19.95;14.27;;;23.40;99.90;;;;;;5109418;27;20198;-93
2023/08/06 07:53:54;;;;;;;15.82;13.88;;;23.50;99.90;;;;;;5030224;28;20506;-92
2023/08/06 07:56:21;;;;;;;17.33;14.55;;;23.60;99.90;;;;;;5003609;28;20255;-93
2023/08/06 07:58:49;;;;;;;17.75;14.05;;;23.70;99.90;;;;;;5027950;28;20542;-92
2023/08/06 08:01:16;;;;;;;15.82;14.13;;;23.70;99.90;;;;;;5027331;28;20253;-91
2023/08/06 08:03:45;;;;;;;15.98;14.07;;;23.70;99.90;;;;;;5010324;28;20186;-91
2023/08/06 08:06:13;;;;;;;16.73;14.43;;;23.80;99.90;;;;;;5013840;28;20261;-90
2023/08/06 08:08:40;;;;;;;16.05;14.45;;;23.80;99.90;;;;;;5006146;28;20301;-90
2023/08/06 08:11:08;;;;;;;18.05;14.30;;;23.90;99.90;;;;;;5009405;28;20198;-90
2023/08/06 08:13:36;;;;;;;18.33;14.70;;;24.10;99.90;;;;;;5019558;28;20214;-88
2023/08/06 08:16:04;;;;;;;18.20;13.82;;;24.10;99.90;;;;;;5041037;28;20211;-92
2023/08/06 08:18:32;;;;;;;17.60;14.30;;;24.00;99.90;;;;;;5014704;28;20190;-91
2023/08/06 08:21:02;;;;;;;16.65;14.48;;;24.10;99.90;;;;;;5025735;28;20216;-92
2023/08/06 08:23:32;;;;;;;16.20;14.10;;;24.10;99.90;;;;;;5034301;28;20221;-92
2023/08/06 08:26:09;;;;;;;16.23;14.30;;;24.10;99.90;;;;;;5018499;28;20664;-91
2023/08/06 08:28:38;;;;;;;15.65;13.45;;;24.20;99.90;;;;;;5033547;28;20213;-93
2023/08/06 08:31:09;;;;;;;15.82;14.02;;;24.40;99.90;;;;;;5031010;28;20213;-92
2023/08/06 08:33:38;;;;;;;15.80;14.13;;;24.60;99.90;;;;;;5040906;28;20178;-92
2023/08/06 08:36:09;;;;;;;16.50;14.82;;;24.60;99.90;;;;;;5011988;28;20281;-88
2023/08/06 08:38:37;;;;;;;15.68;14.02;;;24.60;99.90;;;;;;5109280;27;20200;-92
2023/08/06 08:41:10;;;;;;;16.95;14.23;;;24.70;99.90;;;;;;5046617;28;20209;-93
2023/08/06 08:43:40;;;;;;;16.95;14.18;;;24.80;99.90;;;;;;5007636;28;20194;-93
2023/08/06 08:46:11;;;;;;;17.27;15.50;;;24.80;99.90;;;;;;5019420;28;20713;-93
2023/08/06 08:48:44;;;;;;;17.38;15.20;;;24.70;99.90;;;;;;5013786;28;20828;-93
2023/08/06 08:51:15;;;;;;;15.55;13.90;;;24.90;99.90;;;;;;5027583;28;20672;-93
2023/08/06 08:53:50;;;;;;;16.20;14.40;;;24.90;99.90;;;;;;5013756;28;20186;-93
2023/08/06 08:56:20;;;;;;;17.58;15.13;;;24.80;99.90;;;;;;5008486;28;20174;-94
2023/08/06 08:58:54;;;;;;;21.98;15.63;;;24.90;99.90;;;;;;5012845;28;20225;-91
2023/08/06 09:01:22;;;;;;;16.27;14.32;;;25.00;99.90;;;;;;5034286;28;20724;-93
2023/08/06 09:03:51;;;;;;;17.75;14.85;;;25.10;99.90;;;;;;5015415;28;20285;-92
2023/08/06 09:06:29;;;;;;;18.42;15.23;;;25.10;99.90;;;;;;5093785;27;20218;-93
2023/08/06 09:09:09;;;;;;;17.40;14.95;;;25.20;99.90;;;;;;5034133;28;20186;-92
2023/08/06 09:11:45;;;;;;;15.93;14.13;;;25.40;99.90;;;;;;5090775;27;20553;-92
2023/08/06 09:14:13;;;;;;;17.27;14.63;;;25.60;99.90;;;;;;5030829;28;20246;-92
2023/08/06 09:16:41;;;;;;;18.10;13.95;;;25.70;99.90;;;;;;5008726;28;20229;-92
2023/08/06 09:19:18;;;;;;;18.13;15.88;;;25.70;99.90;;;;;;5009339;28;20186;-94
2023/08/06 09:21:55;;;;;;;19.27;15.23;;;25.90;99.90;;;;;;5010417;28;20264;-93
2023/08/06 09:24:26;;;;;;;19.38;15.10;;;25.90;99.90;;;;;;5110012;27;20189;-92
2023/08/06 09:26:54;;;;;;;16.80;14.75;;;25.90;99.90;;;;;;5013287;28;20218;-93
2023/08/06 09:29:23;;;;;;;19.08;14.75;;;25.90;99.90;;;;;;5036083;28;20671;-93
2023/08/06 09:31:52;;;;;;;33.90;15.73;;;25.80;99.90;;;;;;5019174;28;20719;-92
2023/08/06 09:34:24;;;;;;;16.60;14.82;;;25.80;99.90;;;;;;5042288;28;20288;-93
2023/08/06 09:36:53;;;;;;;18.75;15.30;;;26.10;99.90;;;;;;5026931;28;20204;-92
2023/08/06 09:39:34;;;;;;;18.00;16.10;;;26.10;99.90;;;;;;5030975;28;20186;-93
2023/08/06 09:42:05;;;;;;;16.52;14.80;;;25.90;99.90;;;;;;5010447;28;20182;-91
2023/08/06 09:44:34;;;;;;;18.27;15.80;;;26.00;99.90;;;;;;5086750;28;20282;-93
2023/08/06 09:47:04;;;;;;;17.75;15.85;;;26.00;99.90;;;;;;5026827;28;20221;-92
2023/08/06 09:49:33;;;;;;;17.25;14.95;;;26.00;99.90;;;;;;5029288;28;20239;-92
2023/08/06 09:52:03;;;;;;;19.33;16.35;;;26.10;99.90;;;;;;5024358;28;20186;-93
2023/08/06 09:54:35;;;;;;;18.95;16.23;;;26.10;99.90;;;;;;5026190;28;20183;-92
2023/08/06 09:57:06;;;;;;;18.05;16.25;;;26.10;99.90;;;;;;5035041;28;20290;-93
2023/08/06 09:59:34;;;;;;;19.55;15.55;;;26.20;99.90;;;;;;5001401;28;20186;-92
2023/08/06 10:02:07;;;;;;;15.90;14.27;;;26.10;99.90;;;;;;5012463;28;20209;-92
2023/08/06 10:04:37;;;;;;;16.92;14.48;;;26.40;99.90;;;;;;5041080;28;20201;-92
2023/08/06 10:07:10;;;;;;;18.10;14.02;;;26.30;99.90;;;;;;5001513;28;20191;-92
2023/08/06 10:09:38;;;;;;;16.42;14.35;;;26.30;99.90;;;;;;5013471;28;20284;-93
2023/08/06 10:12:07;;;;;;;17.02;13.93;;;26.20;99.90;;;;;;5104569;27;20213;-92
2023/08/06 10:14:37;;;;;;;16.73;14.63;;;26.50;99.90;;;;;;5021479;28;20194;-92
2023/08/06 10:17:05;;;;;;;16.55;14.07;;;26.50;99.90;;;;;;5029166;28;20699;-92
2023/08/06 10:19:34;;;;;;;14.68;13.18;;;26.40;99.90;;;;;;5008333;28;20653;-92
2023/08/06 10:22:13;;;;;;;16.30;14.20;;;26.30;99.90;;;;;;5022789;28;20202;-92
2023/08/06 10:24:55;;;;;;;17.58;14.20;;;26.40;99.90;;;;;;5014170;28;20611;-92
2023/08/06 10:27:29;;;;;;;15.48;13.43;;;26.20;99.90;;;;;;5041866;28;20201;-92
2023/08/06 10:30:25;;;;;;;15.70;13.90;;;26.30;99.90;;;;;;5039717;28;20221;-92
2023/08/06 10:33:04;;;;;;;14.85;12.85;;;26.20;99.90;;;;;;5029254;28;20266;-92
2023/08/06 10:35:48;;;;;;;18.17;13.95;;;26.20;99.90;;;;;;5018076;28;20297;-94
2023/08/06 10:38:17;;;;;;;16.20;12.82;;;26.40;99.90;;;;;;5030085;28;20536;-93
2023/08/06 10:40:50;;;;;;;14.90;13.38;;;26.70;99.90;;;;;;5020654;28;20189;-92
2023/08/06 10:43:34;;;;;;;14.88;12.80;;;26.80;99.90;;;;;;5008197;28;20655;-93
2023/08/06 10:46:08;;;;;;;15.32;13.05;;;27.00;99.90;;;;;;5100628;27;20687;-93
2023/08/06 10:48:41;;;;;;;16.00;12.70;;;27.10;99.90;;;;;;5032496;28;20189;-90
2023/08/06 10:51:13;;;;;;;16.70;12.88;;;27.20;99.90;;;;;;5035683;28;20240;-93
2023/08/06 10:53:50;;;;;;;17.48;12.85;;;27.00;99.90;;;;;;5029133;28;20198;-94
2023/08/06 10:56:19;;;;;;;16.05;13.25;;;27.10;99.90;;;;;;5033392;28;20193;-92
2023/08/06 10:58:48;;;;;;;15.23;13.35;;;27.10;99.90;;;;;;5022775;28;20218;-93
2023/08/06 11:01:16;;;;;;;14.02;12.43;;;26.80;99.90;;;;;;4999696;28;20178;-93
2023/08/06 11:03:45;;;;;;;15.70;12.07;;;26.50;99.90;;;;;;5037718;28;20187;-93
2023/08/06 11:06:23;;;;;;;14.63;12.73;;;26.70;99.90;;;;;;5033415;28;20189;-92
2023/08/06 11:08:53;;;;;;;17.85;13.38;;;27.20;99.90;;;;;;5008317;28;20547;-94
2023/08/06 11:11:25;;;;;;;13.93;12.63;;;27.50;99.90;;;;;;5033664;28;20538;-92
2023/08/06 11:13:53;;;;;;;15.38;13.82;;;27.70;99.90;;;;;;5006405;28;20203;-94
2023/08/06 11:16:27;;;;;;;15.23;13.63;;;27.80;99.90;;;;;;5030308;28;20285;-93
2023/08/06 11:18:57;;;;;;;15.07;13.57;;;27.80;99.90;;;;;;5028263;28;20198;-94
2023/08/06 11:21:29;;;;;;;16.88;13.48;;;27.90;99.90;;;;;;5100617;27;20659;-93
2023/08/06 11:23:57;;;;;;;14.85;13.30;;;27.80;99.90;;;;;;5103122;27;20319;-94
2023/08/06 11:26:28;;;;;;;16.65;13.60;;;27.60;99.90;;;;;;5098171;27;20194;-94
2023/08/06 11:28:58;;;;;;;15.00;13.45;;;27.60;99.90;;;;;;5031689;28;20183;-94
2023/08/06 11:31:25;;;;;;;14.80;13.25;;;27.80;99.90;;;;;;5015801;28;20177;-93
2023/08/06 11:33:54;;;;;;;15.00;13.27;;;27.80;99.90;;;;;;5021969;28;20198;-92
2023/08/06 11:36:32;;;;;;;15.00;13.43;;;28.20;99.90;;;;;;5100487;27;20182;-94
2023/08/06 11:39:02;;;;;;;18.92;12.95;;;28.40;99.90;;;;;;5023120;28;20760;-94
2023/08/06 11:41:33;;;;;;;14.90;13.30;;;28.20;99.90;;;;;;5037835;28;20209;-94
2023/08/06 11:44:04;;;;;;;14.25;12.75;;;28.20;99.90;;;;;;5043940;28;20197;-94
2023/08/06 11:46:55;;;;;;;14.57;12.68;;;27.90;99.90;;;;;;5018576;28;20190;-94
2023/08/06 11:49:40;;;;;;;13.63;12.23;;;27.80;99.90;;;;;;5101717;27;20576;-94
2023/08/06 11:52:11;;;;;;;18.80;12.15;;;27.70;99.90;;;;;;5023523;28;20193;-94
2023/08/06 11:54:39;;;;;;;14.77;12.43;;;27.60;99.90;;;;;;5035451;28;20190;-94
2023/08/06 11:57:07;;;;;;;14.18;12.43;;;27.50;99.90;;;;;;5005576;28;20191;-93
2023/08/06 11:59:34;;;;;;;15.82;13.00;;;27.60;99.90;;;;;;5099243;27;20186;-94
2023/08/06 12:02:07;;;;;;;14.45;12.88;;;27.70;99.90;;;;;;5017416;28;20194;-94
2023/08/06 12:05:25;;;;;;;13.82;12.38;;;28.00;99.90;;;;;;5093339;28;20260;-92
2023/08/06 12:07:58;;;;;;;14.85;12.52;;;28.40;99.90;;;;;;5001066;28;20298;-94
2023/08/06 12:10:28;;;;;;;16.05;13.57;;;28.80;99.90;;;;;;5048471;28;20189;-94
2023/08/06 12:12:56;;;;;;;14.20;12.70;;;28.90;99.90;;;;;;5018116;28;20190;-93
2023/08/06 12:15:25;;;;;;;14.35;12.85;;;28.90;99.90;;;;;;5015234;28;20197;-94
2023/08/06 12:17:54;;;;;;;14.35;12.75;;;28.60;99.90;;;;;;5099656;28;20242;-92
2023/08/06 12:20:23;;;;;;;14.25;12.80;;;28.50;99.90;;;;;;5103715;27;20287;-93
2023/08/06 12:22:52;;;;;;;14.15;12.30;;;28.40;99.90;;;;;;5110914;27;20258;-94
2023/08/06 12:25:20;;;;;;;17.40;13.13;;;28.40;99.90;;;;;;5039102;28;20652;-95
2023/08/06 12:27:48;;;;;;;15.88;12.98;;;28.30;99.90;;;;;;5035969;28;20186;-94
2023/08/06 12:30:16;;;;;;;13.95;11.57;;;28.10;99.90;;;;;;5016610;28;20201;-95
2023/08/06 12:32:44;;;;;;;15.75;13.10;;;28.00;99.90;;;;;;5034338;28;20297;-93
2023/08/06 12:35:11;;;;;;;18.00;13.07;;;27.80;99.90;;;;;;5033705;28;20190;-93
2023/08/06 12:37:39;;;;;;;13.95;12.45;;;28.00;99.90;;;;;;5108426;27;20233;-94
2023/08/06 12:40:07;;;;;;;14.20;12.15;;;28.00;99.90;;;;;;5034410;28;20190;-93
2023/08/06 12:42:55;;;;;;;13.88;12.40;;;28.20;99.90;;;;;;5040936;28;20792;-95
2023/08/06 12:45:23;;;;;;;14.00;12.23;;;28.30;99.90;;;;;;5090244;27;20191;-94
2023/08/06 12:47:51;;;;;;;15.15;12.45;;;28.40;99.90;;;;;;5115991;27;20190;-95